createdAt,value
2022-09-14T00:02:30.773Z,62.83
2022-09-14T00:05:36.774Z,62.85
2022-09-14T00:08:39.682Z,62.61
2022-09-14T00:11:42.617Z,62.93
2022-09-14T00:14:46.012Z,62.98
2022-09-14T00:17:48.767Z,64.51
2022-09-14T00:20:51.362Z,65.34
2022-09-14T00:23:55.298Z,66.22
2022-09-14T00:26:57.858Z,67.08
2022-09-14T00:30:01.790Z,67.90
2022-09-14T00:33:04.396Z,68.00
2022-09-14T00:36:08.932Z,67.68
2022-09-14T00:39:12.126Z,66.63
2022-09-14T00:42:15.897Z,66.67
2022-09-14T00:45:22.061Z,67.12
2022-09-14T00:48:25.258Z,67.67
2022-09-14T00:51:28.418Z,67.28
2022-09-14T00:54:31.727Z,67.47
2022-09-14T00:57:36.128Z,67.89
2022-09-14T01:00:39.182Z,68.60
2022-09-14T01:03:41.865Z,68.24
2022-09-14T01:07:03.575Z,68.12
2022-09-14T01:10:09.421Z,67.95
2022-09-14T01:13:31.273Z,67.86
2022-09-14T01:16:35.147Z,68.35
2022-09-14T01:19:56.758Z,68.38
2022-09-14T01:23:06.791Z,69.94
2022-09-14T01:26:14.316Z,68.98
2022-09-14T01:29:32.649Z,68.67
2022-09-14T01:32:52.395Z,68.65
2022-09-14T01:35:58.731Z,70.17
2022-09-14T01:39:01.888Z,71.46
2022-09-14T01:42:04.524Z,72.59
2022-09-14T01:45:08.780Z,73.32
2022-09-14T01:48:11.751Z,73.91
2022-09-14T01:51:15.504Z,73.13
2022-09-14T01:54:25.533Z,72.57
2022-09-14T01:57:36.736Z,70.90
2022-09-14T02:00:40.013Z,70.28
2022-09-14T02:03:49.774Z,69.56
2022-09-14T02:06:52.943Z,69.24
2022-09-14T02:09:55.664Z,69.53
2022-09-14T02:12:59.954Z,69.05
2022-09-14T02:16:02.734Z,68.19
2022-09-14T02:19:06.510Z,67.13
2022-09-14T02:22:09.303Z,67.79
2022-09-14T02:25:12.495Z,66.66
2022-09-14T02:28:15.128Z,66.84
2022-09-14T02:31:21.839Z,66.67
2022-09-14T02:34:33.998Z,66.56
2022-09-14T02:38:00.300Z,68.24
2022-09-14T02:41:21.451Z,68.35
2022-09-14T02:44:33.603Z,68.03
2022-09-14T02:47:43.289Z,68.81
2022-09-14T02:50:48.954Z,69.03
2022-09-14T02:53:51.703Z,69.24
2022-09-14T02:56:54.771Z,69.93
2022-09-14T02:59:57.688Z,71.74
2022-09-14T03:03:00.690Z,71.43
2022-09-14T03:06:03.314Z,72.83
2022-09-14T03:09:06.212Z,72.53
2022-09-14T03:12:09.127Z,71.11
2022-09-14T03:15:12.105Z,71.98
2022-09-14T03:18:14.777Z,73.11
2022-09-14T03:21:18.342Z,72.66
2022-09-14T03:24:21.149Z,72.76
2022-09-14T03:27:25.110Z,74.59
2022-09-14T03:30:28.071Z,74.26
2022-09-14T03:33:31.315Z,73.55
2022-09-14T03:36:34.132Z,73.27
2022-09-14T03:39:37.804Z,72.40
2022-09-14T03:42:47.694Z,73.37
2022-09-14T03:45:50.646Z,71.26
2022-09-14T03:48:54.281Z,72.07
2022-09-14T03:51:59.788Z,72.06
2022-09-14T03:55:03.317Z,73.58
2022-09-14T03:58:06.546Z,74.54
2022-09-14T04:01:10.237Z,75.54
2022-09-14T04:04:13.362Z,76.60
2022-09-14T04:07:16.118Z,76.20
2022-09-14T04:10:19.169Z,76.40
2022-09-14T04:13:22.878Z,76.32
2022-09-14T04:16:25.876Z,76.17
2022-09-14T04:19:29.629Z,75.98
2022-09-14T04:22:38.476Z,76.85
2022-09-14T04:25:41.175Z,76.95
2022-09-14T04:28:44.294Z,76.53
2022-09-14T04:31:47.236Z,75.85
2022-09-14T04:34:50.862Z,76.99
2022-09-14T04:37:53.543Z,76.12
2022-09-14T04:40:57.352Z,74.80
2022-09-14T04:44:00.674Z,73.87
2022-09-14T04:47:43.294Z,73.56
2022-09-14T04:50:44.878Z,70.71
2022-09-14T04:53:49.977Z,71.98
2022-09-14T04:56:53.424Z,73.70
2022-09-14T05:03:27.910Z,74.62
2022-09-14T05:06:32.922Z,75.47
2022-09-14T05:09:42.990Z,75.23
2022-09-14T05:12:56.118Z,74.53
2022-09-14T05:16:10.702Z,73.07
2022-09-14T05:19:15.522Z,74.40
2022-09-14T05:22:30.962Z,74.30
2022-09-14T05:25:34.598Z,73.94
2022-09-14T05:28:44.077Z,73.02
2022-09-14T05:31:50.849Z,73.84
2022-09-14T05:34:54.253Z,74.17
2022-09-14T08:04:34.661Z,69.70
2022-09-14T08:15:44.312Z,74.07
2022-09-14T08:30:35.929Z,71.14
2022-09-14T08:33:39.862Z,69.30
2022-09-14T08:36:43.306Z,68.68
2022-09-14T08:43:45.889Z,69.23
2022-09-14T08:46:51.135Z,68.56
2022-09-14T08:49:57.305Z,68.32
2022-09-14T08:53:01.483Z,67.86
2022-09-14T08:56:04.643Z,67.45
2022-09-14T08:59:19.060Z,67.71
2022-09-14T09:02:35.838Z,66.55
2022-09-14T09:05:41.600Z,65.50
2022-09-14T09:08:47.711Z,65.93
2022-09-14T09:11:51.857Z,66.83
2022-09-14T09:15:04.354Z,66.71
2022-09-14T09:22:21.921Z,69.05
2022-09-14T09:25:29.685Z,69.92
2022-09-14T09:28:40.184Z,68.86
2022-09-14T09:31:52.588Z,68.38
2022-09-14T09:35:05.039Z,66.79
2022-09-14T09:38:14.449Z,64.80
2022-09-14T09:41:26.963Z,63.26
2022-09-14T09:44:39.865Z,63.75
2022-09-14T09:48:08.569Z,62.95
2022-09-14T09:51:22.159Z,63.36
2022-09-14T09:54:37.674Z,64.00
2022-09-14T10:05:23.424Z,58.64
2022-09-14T10:08:28.195Z,57.79
2022-09-14T10:11:40.236Z,58.03
2022-09-14T10:14:43.352Z,56.79
2022-09-14T10:18:05.217Z,56.78
2022-09-14T10:21:09.183Z,56.88
2022-09-14T10:24:21.190Z,56.23
2022-09-14T10:27:53.077Z,56.96
2022-09-14T10:31:01.969Z,57.22
2022-09-14T10:34:09.213Z,56.67
2022-09-14T10:37:33.106Z,57.38
2022-09-14T10:40:38.874Z,56.60
2022-09-14T10:43:54.145Z,55.93
2022-09-14T10:47:07.127Z,55.20
2022-09-14T10:50:16.122Z,54.78
2022-09-14T10:53:36.347Z,53.29
2022-09-14T10:57:03.073Z,53.64
2022-09-14T11:00:12.729Z,52.82
2022-09-14T11:03:31.832Z,53.61
2022-09-14T11:06:53.537Z,53.63
2022-09-14T13:18:17.342Z,52.29
2022-09-14T13:21:21.960Z,55.82
2022-09-14T13:24:36.156Z,54.41
2022-09-14T13:27:42.079Z,55.54
2022-09-14T13:30:55.647Z,55.52
2022-09-14T13:33:58.772Z,56.12
2022-09-14T13:37:01.417Z,55.36
2022-09-14T13:40:04.707Z,56.35
2022-09-14T13:43:07.373Z,55.40
2022-09-14T13:46:11.769Z,54.91
2022-09-14T13:49:14.558Z,53.28
2022-09-14T13:52:34.020Z,48.82
2022-09-14T13:55:43.229Z,46.02
2022-09-14T13:58:47.728Z,45.77
2022-09-14T14:01:59.728Z,45.07
2022-09-14T14:05:04.285Z,43.46
2022-09-14T14:08:18.595Z,44.68
2022-09-14T14:11:29.056Z,47.66
2022-09-14T14:14:31.828Z,52.34
2022-09-14T14:17:38.720Z,51.63
2022-09-14T14:20:45.157Z,53.29
2022-09-14T14:24:11.711Z,53.14
2022-09-14T14:27:31.442Z,52.83
2022-09-14T14:30:36.699Z,52.13
2022-09-14T14:33:44.703Z,51.93
2022-09-14T14:36:50.705Z,49.67
2022-09-14T14:39:54.017Z,45.81
2022-09-14T14:42:58.492Z,45.35
2022-09-14T14:46:01.560Z,47.43
2022-09-14T14:49:04.566Z,48.66
2022-09-14T14:52:07.761Z,50.91
2022-09-14T14:55:10.973Z,49.96
2022-09-14T15:09:24.651Z,51.04
2022-09-14T15:12:27.905Z,51.18
2022-09-14T15:15:31.166Z,52.59
2022-09-14T15:18:36.044Z,52.36
2022-09-14T15:21:42.767Z,52.08
2022-09-14T15:24:49.090Z,55.95
2022-09-14T15:27:52.656Z,54.75
2022-09-14T15:31:04.859Z,54.64
2022-09-14T15:34:19.930Z,54.74
2022-09-14T15:37:25.662Z,54.11
2022-09-14T15:40:31.808Z,52.97
2022-09-14T15:43:39.292Z,51.15
2022-09-14T15:46:48.970Z,50.74
2022-09-14T15:50:10.557Z,49.13
2022-09-14T15:53:49.858Z,44.86
2022-09-14T15:57:02.283Z,41.26
2022-09-14T16:00:09.578Z,38.94
2022-09-14T16:03:19.279Z,40.57
2022-09-14T16:10:35.145Z,43.74
2022-09-14T16:17:43.508Z,48.00
2022-09-14T17:16:42.567Z,68.53
2022-09-14T17:19:53.326Z,67.92
2022-09-14T17:22:55.859Z,69.27
2022-09-14T17:26:01.620Z,69.63
2022-09-14T17:29:18.325Z,69.79
2022-09-14T17:32:22.265Z,69.41
2022-09-14T17:35:27.931Z,69.37
2022-09-14T17:38:34.964Z,68.91
2022-09-14T17:41:41.721Z,69.40
2022-09-14T17:44:51.497Z,69.37
2022-09-14T17:47:54.875Z,69.85
2022-09-14T17:50:58.191Z,70.91
2022-09-14T17:54:04.200Z,72.15
2022-09-14T17:57:07.289Z,72.39
2022-09-14T18:00:10.525Z,71.98
2022-09-14T18:03:13.556Z,70.95
2022-09-14T18:09:52.827Z,71.34
2022-09-14T18:12:55.665Z,71.90
2022-09-14T18:16:11.518Z,71.81
2022-09-14T18:19:15.149Z,71.77
2022-09-14T18:22:21.022Z,72.35
2022-09-14T18:25:25.125Z,73.44
2022-09-14T18:28:29.188Z,75.37
2022-09-14T18:31:33.274Z,76.41
2022-09-14T18:34:39.200Z,76.15
2022-09-14T18:37:44.750Z,76.46
2022-09-14T18:40:48.197Z,75.83
2022-09-14T18:43:54.970Z,75.37
2022-09-14T18:46:59.742Z,75.42
2022-09-14T18:50:06.868Z,75.49
2022-09-14T18:53:13.024Z,75.58
2022-09-14T18:56:19.397Z,75.51
2022-09-14T19:06:50.836Z,76.55
2022-09-14T19:09:59.704Z,75.77
2022-09-14T19:13:08.350Z,76.75
2022-09-14T19:23:40.789Z,77.17
2022-09-14T19:26:46.823Z,76.44
2022-09-14T19:29:52.671Z,75.83
2022-09-14T19:32:57.737Z,75.63
2022-09-14T19:36:09.416Z,75.94
2022-09-14T19:39:13.219Z,75.66
2022-09-14T19:42:17.551Z,75.64
2022-09-14T19:45:21.165Z,76.39
2022-09-14T19:48:25.681Z,76.10
2022-09-14T19:51:36.161Z,76.21
2022-09-14T19:54:43.870Z,77.27
2022-09-14T19:57:49.868Z,77.33
2022-09-14T20:00:55.080Z,76.85
2022-09-14T20:04:00.055Z,77.22
2022-09-14T20:07:06.234Z,76.79
2022-09-14T20:10:10.446Z,76.50
2022-09-14T20:13:14.193Z,76.84
2022-09-14T20:16:25.967Z,77.30
2022-09-14T20:19:29.790Z,77.46
2022-09-14T20:22:33.559Z,77.12
2022-09-14T20:25:36.456Z,77.27
2022-09-14T20:28:40.000Z,77.72
2022-09-14T20:31:42.721Z,77.71
2022-09-14T20:34:45.973Z,77.91
2022-09-14T20:37:49.381Z,76.35
2022-09-14T20:40:59.069Z,75.11
2022-09-14T20:44:02.230Z,76.30
2022-09-14T20:47:05.517Z,76.82
2022-09-14T20:50:09.088Z,75.98
2022-09-14T20:53:12.569Z,75.54
2022-09-14T20:56:16.694Z,75.43
2022-09-14T20:59:22.634Z,75.53
2022-09-14T21:02:26.540Z,75.10
2022-09-14T21:05:29.415Z,75.90
2022-09-14T21:08:33.211Z,75.28
2022-09-14T21:11:38.752Z,75.62
2022-09-14T21:14:45.484Z,74.52
2022-09-14T21:17:49.117Z,73.70
2022-09-14T21:20:51.779Z,74.49
2022-09-14T21:23:55.972Z,74.41
2022-09-14T21:26:58.500Z,74.33
2022-09-14T21:30:01.494Z,73.69
2022-09-14T21:33:04.195Z,73.88
2022-09-14T21:36:08.320Z,74.10
2022-09-14T21:39:23.691Z,74.07
2022-09-14T21:50:16.497Z,74.33
2022-09-14T21:53:19.399Z,76.01
2022-09-14T21:56:23.536Z,75.30
2022-09-14T21:59:26.370Z,75.33
2022-09-14T22:02:28.896Z,78.09
2022-09-14T22:05:31.753Z,78.09
2022-09-14T22:08:35.468Z,77.92
2022-09-14T22:12:05.923Z,79.51
2022-09-14T22:15:09.304Z,79.80
2022-09-14T22:18:12.298Z,83.45
2022-09-14T22:21:15.036Z,84.35
2022-09-14T22:24:19.965Z,85.29
2022-09-14T22:27:22.988Z,85.79
2022-09-14T22:30:26.042Z,88.46
2022-09-14T22:33:29.102Z,89.99
2022-09-14T22:36:32.581Z,91.03
2022-09-14T22:39:35.556Z,92.14
2022-09-14T22:42:38.433Z,92.22
2022-09-14T22:45:41.336Z,92.82
2022-09-14T22:48:44.840Z,91.85
2022-09-14T22:51:47.801Z,92.55
2022-09-14T22:54:51.369Z,92.41
2022-09-14T22:57:53.936Z,93.07
2022-09-14T23:00:56.846Z,93.19
2022-09-14T23:04:03.929Z,93.34
2022-09-14T23:07:08.447Z,93.43
2022-09-14T23:18:27.977Z,95.70
2022-09-14T23:21:31.433Z,96.83
2022-09-14T23:24:33.991Z,99.17
2022-09-14T23:27:36.809Z,100.00
2022-09-14T23:30:39.673Z,99.60
2022-09-14T23:33:42.611Z,98.18
2022-09-14T23:36:45.292Z,98.51
2022-09-14T23:39:48.245Z,99.41
2022-09-14T23:42:50.787Z,100.00
2022-09-14T23:45:54.375Z,100.00
2022-09-14T23:49:05.586Z,100.00
2022-09-14T23:52:23.307Z,100.00
